Latest Weather Observations for Williamtown

IDN60801

Issued at 6:05 pm EST Thursday 2 October 2014 (issued every 30 minutes, with the page automatically refreshed every 10 minutes)

About weather observations | Map of weather stations | Latest weather observations for NSW | Other Formats
Station Details ID: 061078 Name: WILLIAMTOWN RAAF Lat: -32.79 Lon: 151.84 Height: 9.0 m
Data from the previous 72 hours. | See also: Recent months at Williamtown
Date/Time
EST
Temp
°C
App
Temp
°C
Dew
Point
Rel
Hum
%
Delta-T
°C
Wind Press
QNH
hPa
Press
MSL
hPa
Rain
since 9 am
mm
Dir
 
Spd
km/h
Gust
km/h
Spd
kts
Gust
kts
02/06:00pm 17.5 14.6 9.5 59 4.2 ENE 15 19 8 10 1018.3 1018.4 0.0
02/05:30pm 18.9 15.9 9.4 54 5.0 NE 15 19 8 10 1018.1 - 0.0
02/05:00pm 20.3 17.4 8.1 45 6.3 N 13 17 7 9 1018.0 - 0.0
02/04:30pm 22.7 18.1 1.3 24 9.9 NW 15 20 8 11 1017.9 - 0.0
02/04:00pm 23.0 17.9 0.8 23 10.2 NW 17 24 9 13 1017.8 - 0.0
02/03:30pm 23.0 18.5 1.9 25 9.9 NNW 15 20 8 11 1017.8 - 0.0
02/03:00pm 22.7 17.2 0.5 23 10.1 NW 19 28 10 15 1018.0 1018.1 0.0
02/02:30pm 22.9 18.1 2.4 26 9.7 W 17 28 9 15 1018.4 - 0.0
02/02:00pm 22.4 18.1 3.5 29 9.1 W 15 28 8 15 1018.8 - 0.0
02/11:00am 19.5 15.8 4.5 37 7.2 NW 13 22 7 12 1021.4 - 0.0
02/10:30am 19.0 15.5 5.4 41 6.6 WNW 13 26 7 14 1021.9 - 0.0
02/10:00am 17.6 13.2 4.8 42 6.1 NNW 17 20 9 11 1022.2 - 0.0
02/09:30am 17.4 13.0 4.7 43 6.0 NW 17 22 9 12 1022.5 - 0.0
02/09:00am 16.8 12.9 5.3 46 5.5 WNW 15 20 8 11 1022.8 1022.9 0.0
02/08:30am 15.7 12.2 5.4 50 4.9 WNW 13 15 7 8 1023.0 - 0.0
02/08:00am 14.2 10.6 4.9 53 4.3 NW 13 15 7 8 1023.0 - 0.0
02/07:30am 12.6 9.5 5.5 62 3.3 NW 11 13 6 7 1023.1 - 0.0
02/07:00am 11.2 7.8 5.8 69 2.5 NW 13 17 7 9 1022.9 - 0.0
02/06:30am 8.8 5.7 5.7 81 1.4 NW 11 15 6 8 1022.8 - 0.0
02/06:00am 6.8 4.0 5.0 88 0.8 NW 9 11 5 6 1022.6 1022.7 0.0
02/05:30am 6.5 3.6 4.6 88 0.8 WNW 9 11 5 6 1022.4 - 0.0
02/05:00am 6.9 4.0 4.8 86 0.9 W 9 9 5 5 1022.1 - 0.0
02/04:30am 7.2 3.6 5.2 87 0.9 NW 13 13 7 7 1021.8 - 0.0
02/04:00am 8.1 4.9 5.2 82 1.3 WNW 11 13 6 7 1021.8 - 0.0
02/03:30am 8.5 5.7 5.1 79 1.5 WNW 9 11 5 6 1021.8 - 0.0
02/03:00am 9.2 6.4 5.2 76 1.8 NW 9 11 5 6 1021.7 1021.8 0.0
02/02:30am 9.9 6.7 5.2 72 2.1 NW 11 13 6 7 1021.9 - 0.0
02/02:00am 10.5 7.7 5.2 70 2.4 NW 9 11 5 6 1022.3 - 0.0
02/01:30am 10.6 7.1 5.3 70 2.4 NW 13 13 7 7 1022.5 - 0.0
02/01:00am 10.4 7.3 5.6 72 2.2 WNW 11 11 6 6 1022.7 - 0.0
02/12:30am 10.0 7.3 5.6 74 2.0 NW 9 9 5 5 1022.9 - 0.0
02/12:00am 10.1 7.1 6.0 76 1.9 NW 11 13 6 7 1022.9 1023.0 0.0
 
Date/Time
EST
Temp
°C
App
Temp
°C
Dew
Point
Rel
Hum
%
Delta-T
°C
Wind Press
QNH
hPa
Press
MSL
hPa
Rain
since 9 am
mm
Dir
 
Spd
km/h
Gust
km/h
Spd
kts
Gust
kts
01/11:30pm 10.4 7.4 5.8 73 2.1 NW 11 15 6 8 1023.2 - 0.0
01/11:00pm 10.7 8.1 5.9 72 2.2 NW 9 11 5 6 1023.2 - 0.0
01/10:30pm 10.5 9.5 5.7 72 2.2 CALM 0 0 0 0 1023.0 - 0.0
01/10:00pm 10.7 9.2 4.9 67 2.6 SE 2 11 1 6 1022.8 - 0.0
01/09:30pm 12.6 10.1 5.0 60 3.5 ESE 7 7 4 4 1022.6 - 0.0
01/09:00pm 13.8 9.3 4.1 52 4.4 SSE 17 20 9 11 1022.4 1022.5 0.0
01/08:30pm 12.7 9.1 5.1 60 3.5 SSE 13 15 7 8 1022.3 - 0.0
01/08:00pm 14.0 9.7 3.3 48 4.8 SSE 15 19 8 10 1022.2 - 0.0
01/07:30pm 14.4 9.2 2.7 45 5.2 SSE 19 30 10 16 1021.7 - 0.0
01/07:00pm 14.7 10.4 3.1 45 5.2 SSE 15 22 8 12 1021.5 - 0.0
01/06:30pm 15.0 9.5 3.8 47 5.1 SSE 22 30 12 16 1020.9 - 0.0
01/06:00pm 15.4 9.3 3.0 43 5.6 SSE 24 35 13 19 1020.5 1020.6 0.0
01/05:30pm 16.1 10.0 2.5 40 6.1 SSE 24 32 13 17 1020.1 - 0.0
01/05:00pm 16.9 9.8 1.5 35 6.8 SSE 28 37 15 20 1019.7 - 0.0
01/04:30pm 17.3 9.3 0.1 31 7.4 SSE 32 39 17 21 1019.3 - 0.0
01/04:00pm 17.7 9.6 -0.6 29 7.8 SSE 32 41 17 22 1018.9 - 0.0
01/03:30pm 18.4 9.7 -0.8 27 8.2 SSE 35 46 19 25 1018.7 - 0.0
01/03:00pm 18.3 8.7 -1.4 26 8.3 SSE 39 48 21 26 1018.5 1018.6 0.0
01/02:30pm 18.7 9.8 0.5 29 8.0 SSE 37 48 20 26 1018.4 - 0.0
01/02:00pm 19.0 10.4 0.0 28 8.3 S 35 48 19 26 1018.3 - 0.0
01/01:30pm 19.5 10.1 0.2 27 8.5 S 39 52 21 28 1018.2 - 0.0
01/01:00pm 20.0 9.7 -3.7 20 9.7 S 41 52 22 28 1018.1 - 0.0
01/12:38pm 20.4 11.3 -3.3 20 9.8 S 35 54 19 29 1018.1 - 0.0
01/12:30pm 19.9 9.9 -4.4 19 9.8 S 39 50 21 27 1018.0 - 0.0
01/12:27pm 20.9 11.3 -4.9 17 10.4 S 37 50 20 27 1017.9 - 0.0
01/12:00pm 20.9 11.8 -9.7 12 11.2 SSW 32 52 17 28 1017.8 1017.9 0.0
01/11:48am 20.9 12.4 -6.5 15 10.7 SSW 30 48 16 26 1017.9 - 0.0
01/11:30am 21.3 13.6 -3.0 19 10.2 S 28 37 15 20 1018.0 - 0.0
01/11:00am 20.2 11.5 -5.2 17 10.1 S 32 43 17 23 1017.9 - 0.0
01/10:30am 20.7 10.7 -4.4 18 10.2 S 39 48 21 26 1017.7 - 0.0
01/10:00am 20.0 10.6 -0.3 25 8.9 S 39 52 21 28 1017.3 - 0.0
01/09:52am 20.1 11.7 1.3 28 8.5 S 35 43 19 23 1017.4 - 0.0
01/09:30am 19.9 10.7 -1.3 24 9.1 SSW 37 50 20 27 1016.9 - 0.0
01/09:00am 18.5 8.4 0.2 29 8.0 SSW 43 61 23 33 1016.5 1016.6 0.0
01/08:40am 18.4 9.8 0.0 29 8.0 SSW 35 54 19 29 1016.4 - 0.0
01/08:30am 18.3 9.6 -0.2 28 8.0 SSW 35 52 19 28 1016.3 - 0.0
01/08:00am 18.2 9.2 0.0 29 7.9 S 37 56 20 30 1015.7 - 0.0
01/07:37am 18.5 10.5 0.6 30 7.9 SSW 32 50 17 27 1015.2 - 0.0
01/07:30am 18.8 11.9 2.8 34 7.4 SSW 28 43 15 23 1014.9 - 0.0
01/07:00am 19.3 14.0 7.0 44 6.2 SSW 24 35 13 19 1014.5 - 0.0
01/06:30am 18.6 13.1 9.0 53 5.0 SSW 28 39 15 21 1013.9 - 0.0
01/06:00am 18.3 13.0 10.0 58 4.4 S 28 41 15 22 1013.5 1013.6 0.0
01/05:30am 18.1 13.3 10.2 60 4.2 S 26 41 14 22 1012.7 - 0.0
01/05:00am 17.1 13.2 8.5 57 4.4 S 19 44 10 24 1012.1 - 0.0
01/04:30am 12.9 12.6 8.5 74 2.2 CALM 0 0 0 0 1010.4 - 0.0
01/04:00am 12.9 10.9 8.7 75 2.1 NW 9 11 5 6 1009.8 - 0.0
01/03:30am 14.6 13.6 8.7 67 3.0 WSW 4 11 2 6 1009.5 - 0.0
01/03:00am 13.3 13.4 10.0 80 1.7 CALM 0 0 0 0 1008.9 1009.0 0.0
01/02:30am 13.1 13.2 10.2 82 1.5 CALM 0 0 0 0 1008.5 - 0.0
01/02:00am 13.4 12.1 10.1 80 1.7 NW 7 7 4 4 1008.2 - 0.0
01/01:30am 15.5 13.8 10.0 70 2.9 NW 9 9 5 5 1008.4 - 0.0
01/01:00am 14.8 12.7 9.6 71 2.7 NNW 11 13 6 7 1008.5 - 0.0
01/12:30am 14.2 13.0 10.4 78 2.0 NNW 7 9 4 5 1008.6 - 0.0
01/12:00am 14.9 14.2 10.1 73 2.5 WNW 4 6 2 3 1008.9 1009.0 0.0
 
Date/Time
EST
Temp
°C
App
Temp
°C
Dew
Point
Rel
Hum
%
Delta-T
°C
Wind Press
QNH
hPa
Press
MSL
hPa
Rain
since 9 am
mm
Dir
 
Spd
km/h
Gust
km/h
Spd
kts
Gust
kts
30/11:30pm 15.6 14.3 10.1 70 2.9 W 7 13 4 7 1008.8 - 0.0
30/11:00pm 15.6 14.0 10.3 70 2.8 NNE 9 11 5 6 1008.6 - 0.0
30/10:30pm 17.4 16.1 9.8 61 4.0 N 7 9 4 5 1008.9 - 0.0
30/10:00pm 17.5 15.8 9.7 60 4.1 N 9 11 5 6 1009.1 - 0.0
30/09:30pm 19.9 17.9 8.6 48 5.9 N 9 11 5 6 1009.3 - 0.0
30/09:00pm 22.2 19.6 7.9 39 7.5 N 11 13 6 7 1009.6 1009.7 0.0
30/08:30pm 22.6 20.0 7.7 38 7.8 N 11 13 6 7 1009.9 - 0.0
30/08:00pm 22.8 20.6 8.0 38 7.8 N 9 13 5 7 1009.9 - 0.0
30/07:30pm 25.4 22.7 7.2 31 9.6 N 11 17 6 9 1009.9 - 0.0
30/07:00pm 26.0 22.7 6.5 28 10.2 N 13 17 7 9 1009.8 - 0.0
30/06:30pm 26.9 23.6 6.2 26 10.8 N 13 19 7 10 1009.9 - 0.0
30/06:00pm 28.4 24.3 4.6 22 12.2 N 15 20 8 11 1009.8 1009.9 0.0
30/05:30pm 29.4 24.9 4.2 20 12.9 NNW 17 26 9 14 1009.9 - 0.0
30/05:00pm 30.1 25.2 4.3 19 13.3 NNW 19 26 10 14 1009.9 - 0.0
30/04:30pm 29.9 25.1 4.9 20 13.0 NNW 19 33 10 18 1009.9 - 0.0
30/04:00pm 29.5 25.8 6.4 23 12.3 N 15 22 8 12 1010.3 - 0.0
30/03:30pm 30.5 26.8 6.4 22 12.9 NNW 15 20 8 11 1010.5 - 0.0
30/03:00pm 29.5 26.7 8.7 27 11.5 N 13 19 7 10 1010.8 1010.9 0.0
30/02:30pm 30.0 26.7 8.1 25 12.0 NNW 15 19 8 10 1011.1 - 0.0
30/02:00pm 28.9 27.7 12.8 37 9.5 N 11 17 6 9 1011.4 - 0.0
30/01:30pm 28.8 28.1 13.3 38 9.2 N 9 13 5 7 1011.8 - 0.0
30/01:00pm 28.6 27.2 12.3 36 9.5 NNW 11 13 6 7 1012.0 - 0.0
30/12:30pm 28.9 27.9 12.3 36 9.7 NW 9 13 5 7 1012.4 - 0.0
30/12:00pm 28.7 27.2 12.0 35 9.7 NNW 11 13 6 7 1012.8 1012.9 0.0
30/11:30am 29.8 28.3 10.5 30 11.0 NW 9 19 5 10 1013.4 - 0.0
30/11:00am 27.3 25.0 10.4 34 9.5 N 13 19 7 10 1013.6 - 0.0
30/10:30am 27.4 24.6 10.0 33 9.7 NW 15 19 8 10 1014.3 - 0.0
30/10:00am 27.1 24.3 8.5 31 10.1 NNW 13 17 7 9 1014.2 - 0.0
30/09:30am 26.2 24.3 10.5 37 8.8 NNW 11 17 6 9 1014.6 - 0.0
30/09:00am 24.3 22.7 10.1 40 7.8 NW 9 13 5 7 1015.2 1015.3 0.0
30/08:30am 20.4 19.6 10.9 54 5.2 WNW 6 13 3 7 1015.2 - 0.0
30/08:00am 18.9 17.3 10.1 56 4.7 NNW 9 13 5 7 1015.1 - 0.0
30/07:30am 17.9 16.0 10.4 61 4.0 WNW 11 13 6 7 1015.3 - 0.0
30/07:00am 17.7 16.2 10.4 62 3.9 WNW 9 15 5 8 1015.2 - 0.0
30/06:30am 17.4 17.6 11.7 69 3.1 WNW 2 9 1 5 1014.7 - 0.0
30/06:00am 15.8 14.4 10.9 72 2.6 NNW 9 13 5 7 1014.7 1014.8 0.0
30/05:30am 14.3 12.7 10.3 77 2.1 N 9 11 5 6 1014.5 - 0.0
30/05:00am 15.6 13.1 9.6 67 3.1 N 13 15 7 8 1014.3 - 0.0
30/04:30am 13.3 11.2 9.8 79 1.8 N 11 13 6 7 1014.4 - 0.0
30/04:00am 14.8 13.1 10.0 73 2.5 N 9 13 5 7 1014.1 - 0.0
30/03:30am 12.6 11.5 10.5 87 1.1 N 7 11 4 6 1014.2 - 0.0
30/03:00am 12.5 11.4 10.6 88 1.0 N 7 9 4 5 1014.2 1014.3 0.0
30/02:30am 13.4 12.3 10.5 82 1.5 NNW 7 9 4 5 1014.4 - 0.0
30/02:00am 14.8 12.9 10.4 75 2.3 NNW 11 15 6 8 1014.4 - 0.0
30/01:30am 13.2 13.0 10.3 82 1.5 NE 2 13 1 7 1014.8 - 0.0
30/01:00am 13.7 13.9 10.6 81 1.6 CALM 0 0 0 0 1015.0 - 0.0
30/12:30am 14.9 15.1 10.5 75 2.3 CALM 0 9 0 5 1015.2 - 0.0
30/12:00am 14.1 14.5 11.1 82 1.6 CALM 0 0 0 0 1015.1 1015.2 0.0
 
Date/Time
EST
Temp
°C
App
Temp
°C
Dew
Point
Rel
Hum
%
Delta-T
°C
Wind Press
QNH
hPa
Press
MSL
hPa
Rain
since 9 am
mm
Dir
 
Spd
km/h
Gust
km/h
Spd
kts
Gust
kts
29/11:30pm 14.5 14.7 10.7 78 2.0 CALM 0 0 0 0 1015.4 - 0.0
29/11:00pm 15.3 15.6 10.8 74 2.4 CALM 0 0 0 0 1015.6 - 0.0
29/10:30pm 15.8 16.0 10.7 71 2.7 CALM 0 0 0 0 1015.8 - 0.0
29/10:00pm 19.6 17.0 9.2 51 5.5 N 13 17 7 9 1015.6 - 0.0
29/09:30pm 17.1 15.6 10.7 66 3.4 N 9 13 5 7 1015.6 - 0.0
29/09:00pm 17.3 17.7 11.2 67 3.3 CALM 0 0 0 0 1015.5 1015.6 0.0
29/08:30pm 18.7 19.1 11.4 62 4.0 CALM 0 0 0 0 1015.4 - 0.0
29/08:00pm 18.6 19.2 11.9 65 3.7 CALM 0 0 0 0 1015.3 - 0.0
29/07:30pm 19.4 17.7 11.2 59 4.5 NNE 11 13 6 7 1014.9 - 0.0
29/07:00pm 20.8 19.1 10.0 50 5.8 ENE 9 11 5 6 1014.5 - 0.0
29/06:30pm 21.5 19.8 10.0 48 6.2 N 9 11 5 6 1014.1 - 0.0

Other Formats:

Comma delimited format used in spreadsheet applications
http://www.bom.gov.au/fwo/IDN60801/IDN60801.94776.axf

JavaScript Object Notation format (JSON) in row-major order
http://www.bom.gov.au/fwo/IDN60801/IDN60801.94776.json